createdAt,value
2023-02-25T00:02:13.475Z,96861.84
2023-02-25T00:07:15.962Z,96861.72
2023-02-25T00:12:17.989Z,96867.28
2023-02-25T00:17:20.081Z,96865.13
2023-02-25T00:22:22.186Z,96866.66
2023-02-25T00:27:25.673Z,96852.78
2023-02-25T00:32:28.171Z,96852.66
2023-02-25T00:37:30.981Z,96858.75
2023-02-25T00:42:33.268Z,96870.06
2023-02-25T00:47:35.941Z,96874.81
2023-02-25T00:52:38.560Z,96858.41
2023-02-25T00:57:40.746Z,96866.66
2023-02-25T01:02:45.656Z,96884.66
2023-02-25T01:07:47.828Z,96883.13
2023-02-25T01:12:49.965Z,96892.56
2023-02-25T01:17:52.009Z,96884.25
2023-02-25T01:22:54.039Z,96883.72
2023-02-25T01:27:58.405Z,96893.84
2023-02-25T01:33:01.599Z,96901.28
2023-02-25T01:38:03.947Z,96913.03
2023-02-25T01:43:07.948Z,96924.31
2023-02-25T01:48:19.062Z,96910.28
2023-02-25T01:53:33.414Z,96901.41
2023-02-25T01:58:35.773Z,96887.94
2023-02-25T02:03:39.784Z,96895.38
2023-02-25T02:08:45.665Z,96896.81
2023-02-25T02:13:56.535Z,96908.19
2023-02-25T02:19:21.630Z,96903.75
2023-02-25T02:25:03.406Z,96900.69
2023-02-25T02:30:30.214Z,96915.66
2023-02-25T02:36:02.038Z,96932.38
2023-02-25T02:41:35.459Z,96924.13
2023-02-25T02:46:47.743Z,96930.25
2023-02-25T02:52:25.898Z,96928.81
2023-02-25T02:57:33.069Z,96926.09
2023-02-25T03:02:38.908Z,96924.66
2023-02-25T03:07:51.362Z,96928.66
2023-02-25T03:12:54.893Z,96937.53
2023-02-25T03:18:07.028Z,96939.28
2023-02-25T03:23:17.165Z,96945.41
2023-02-25T03:28:33.948Z,96954.00
2023-02-25T03:34:06.232Z,96955.50
2023-02-25T03:39:20.951Z,96953.78
2023-02-25T03:44:31.702Z,96948.06
2023-02-25T03:49:59.705Z,96954.91
2023-02-25T03:55:03.133Z,96960.84
2023-02-25T04:00:17.811Z,96955.63
2023-02-25T04:05:22.802Z,96979.53
2023-02-25T04:10:26.498Z,96982.88
2023-02-25T04:15:29.461Z,96987.56
2023-02-25T04:20:32.202Z,96983.38
2023-02-25T04:25:35.025Z,96983.69
2023-02-25T04:30:37.620Z,96982.28
2023-02-25T04:35:39.788Z,96983.47
2023-02-25T04:40:41.972Z,96988.66
2023-02-25T04:45:44.245Z,96989.53
2023-02-25T04:50:46.508Z,96984.91
2023-02-25T04:55:49.145Z,96997.34
2023-02-25T05:00:51.150Z,96990.28
2023-02-25T05:05:53.166Z,97004.34
2023-02-25T05:10:55.278Z,97004.72
2023-02-25T05:16:06.849Z,97002.44
2023-02-25T05:21:16.676Z,97007.25
2023-02-25T05:26:22.171Z,97005.31
2023-02-25T05:31:25.259Z,97002.28
2023-02-25T05:36:28.751Z,97003.56
2023-02-25T05:41:31.420Z,97009.53
2023-02-25T05:46:33.921Z,97002.75
2023-02-25T05:51:36.068Z,97015.28
2023-02-25T05:56:38.054Z,97006.53
2023-02-25T06:01:41.928Z,97016.72
2023-02-25T06:06:50.325Z,97025.41
2023-02-25T06:11:52.412Z,97026.44
2023-02-25T06:16:57.520Z,97031.94
2023-02-25T06:21:59.603Z,97037.94
2023-02-25T06:27:01.662Z,97038.75
2023-02-25T06:32:03.963Z,97055.06
2023-02-25T06:37:07.190Z,97050.59
2023-02-25T06:42:10.646Z,97041.56
2023-02-25T06:47:12.826Z,97052.94
2023-02-25T06:52:15.619Z,97052.66
2023-02-25T06:57:17.905Z,97040.38
2023-02-25T07:02:20.424Z,97056.31
2023-02-25T07:07:23.256Z,97055.50
2023-02-25T07:12:25.315Z,97063.34
2023-02-25T07:17:27.418Z,97055.97
2023-02-25T07:22:29.482Z,97072.13
2023-02-25T07:27:31.680Z,97075.25
2023-02-25T07:32:33.827Z,97076.47
2023-02-25T07:37:35.965Z,97068.50
2023-02-25T07:42:37.952Z,97084.69
2023-02-25T07:47:41.274Z,97077.31
2023-02-25T07:52:43.592Z,97068.28
2023-02-25T07:57:45.971Z,97070.94
2023-02-25T08:02:48.131Z,97073.03
2023-02-25T08:07:51.174Z,97073.97
2023-02-25T08:12:53.437Z,97071.03
2023-02-25T08:17:55.979Z,97067.56
2023-02-25T08:22:59.168Z,97058.78
2023-02-25T08:28:01.874Z,97063.91
2023-02-25T08:33:04.608Z,97068.53
2023-02-25T08:38:06.956Z,97051.22
2023-02-25T08:43:10.402Z,97068.38
2023-02-25T08:48:13.765Z,97060.97
2023-02-25T08:53:16.219Z,97064.66
2023-02-25T08:58:18.309Z,97070.16
2023-02-25T09:03:20.412Z,97062.38
2023-02-25T09:08:22.789Z,97055.47
2023-02-25T09:13:24.949Z,97066.19
2023-02-25T09:18:27.354Z,97074.19
2023-02-25T09:23:29.608Z,97072.00
2023-02-25T09:28:31.695Z,97058.72
2023-02-25T09:33:36.218Z,97063.34
2023-02-25T09:38:41.423Z,97062.50
2023-02-25T09:43:44.456Z,97056.81
2023-02-25T09:49:38.828Z,97052.50
2023-02-25T09:54:47.665Z,97050.13
2023-02-25T09:59:53.687Z,97051.06
2023-02-25T10:05:30.448Z,97056.66
2023-02-25T10:10:58.870Z,97057.47
2023-02-25T10:16:16.081Z,97058.34
2023-02-25T10:21:41.662Z,97050.63
2023-02-25T10:26:50.944Z,97052.13
2023-02-25T10:32:00.098Z,97060.09
2023-02-25T10:37:05.754Z,97051.97
2023-02-25T10:42:09.998Z,97039.34
2023-02-25T10:47:18.185Z,97039.97
2023-02-25T10:52:21.155Z,97037.03
2023-02-25T10:57:27.839Z,97035.22
2023-02-25T11:02:36.348Z,97036.81
2023-02-25T11:07:38.718Z,97032.78
2023-02-25T11:12:47.892Z,97030.09
2023-02-25T11:17:50.438Z,97029.03
2023-02-25T11:22:55.238Z,97032.34
2023-02-25T11:27:58.874Z,97022.31
2023-02-25T11:33:16.449Z,97018.22
2023-02-25T11:38:33.927Z,97026.56
2023-02-25T11:43:45.421Z,97028.47
2023-02-25T11:48:53.236Z,97033.19
2023-02-25T11:54:19.925Z,97025.50
2023-02-25T11:59:43.134Z,97024.06
2023-02-25T12:05:16.917Z,97016.25
2023-02-25T12:11:02.586Z,97016.84
2023-02-25T12:16:54.284Z,97011.34
2023-02-25T12:22:36.717Z,97020.28
2023-02-25T12:28:19.894Z,97017.84
2023-02-25T12:34:08.067Z,97032.53
2023-02-25T12:39:38.344Z,97035.50
2023-02-25T12:45:29.441Z,97042.16
2023-02-25T12:51:22.113Z,97036.72
2023-02-25T12:56:53.524Z,97039.13
2023-02-25T13:02:16.309Z,97027.84
2023-02-25T13:07:42.590Z,97029.09
2023-02-25T13:13:18.516Z,97022.19
2023-02-25T13:18:50.870Z,97006.03
2023-02-25T13:24:33.274Z,97012.31
2023-02-25T13:29:59.880Z,97001.06
2023-02-25T13:35:51.899Z,96999.34
2023-02-25T13:41:18.860Z,97004.94
2023-02-25T13:46:48.481Z,96998.31
2023-02-25T13:52:36.560Z,97006.63
2023-02-25T13:58:16.519Z,96994.66
2023-02-25T14:03:52.934Z,97004.16
2023-02-25T14:09:26.146Z,96990.50
2023-02-25T14:14:40.393Z,97004.31
2023-02-25T14:19:51.442Z,96997.97
2023-02-25T14:25:05.642Z,96986.34
2023-02-25T14:30:30.502Z,96989.53
2023-02-25T14:35:35.362Z,96975.09
2023-02-25T14:40:48.510Z,96978.66
2023-02-25T14:46:30.681Z,96976.63
2023-02-25T14:52:19.515Z,96984.69
2023-02-25T14:58:06.310Z,96992.78
2023-02-25T15:03:58.039Z,96984.69
2023-02-25T15:09:28.802Z,96997.00
2023-02-25T15:15:09.213Z,97009.31
2023-02-25T15:20:33.252Z,97013.81
2023-02-25T15:26:06.833Z,97014.13
2023-02-25T15:31:28.640Z,97037.59
2023-02-25T15:36:45.220Z,97032.66
2023-02-25T15:42:03.230Z,97033.03
2023-02-25T15:47:22.323Z,97029.38
2023-02-25T15:52:52.937Z,97024.34
2023-02-25T15:57:55.418Z,97027.06
2023-02-25T16:03:03.671Z,97032.22
2023-02-25T16:08:56.074Z,97063.47
2023-02-25T16:14:00.613Z,97074.19
2023-02-25T16:19:07.006Z,97088.50
2023-02-25T16:24:14.056Z,97092.41
2023-02-25T16:29:46.300Z,97087.84
2023-02-25T16:34:51.754Z,97094.47
2023-02-25T16:39:54.538Z,97108.44
2023-02-25T16:45:01.967Z,97114.63
2023-02-25T16:50:16.035Z,97120.34
2023-02-25T16:55:30.335Z,97118.75
2023-02-25T17:00:34.478Z,97128.53
2023-02-25T17:05:38.349Z,97136.66
2023-02-25T17:10:56.152Z,97140.34
2023-02-25T17:16:00.817Z,97145.03
2023-02-25T17:21:26.228Z,97143.91
2023-02-25T17:26:31.557Z,97144.13
2023-02-25T17:31:54.092Z,97152.75
2023-02-25T17:37:00.669Z,97171.56
2023-02-25T17:42:03.226Z,97210.53
2023-02-25T17:47:09.637Z,97244.53
2023-02-25T17:52:26.234Z,97243.78
2023-02-25T17:57:31.677Z,97252.88
2023-02-25T18:02:36.561Z,97271.22
2023-02-25T18:07:42.260Z,97258.09
2023-02-25T18:12:48.715Z,97252.44
2023-02-25T18:18:03.506Z,97255.06
2023-02-25T18:23:21.733Z,97247.38
2023-02-25T18:28:24.079Z,97262.69
2023-02-25T18:33:26.167Z,97263.19
2023-02-25T18:38:31.685Z,97266.16
2023-02-25T18:43:38.989Z,97260.25
2023-02-25T18:48:40.998Z,97263.72
2023-02-25T18:53:43.494Z,97260.41
2023-02-25T18:58:46.145Z,97274.31
2023-02-25T19:03:48.586Z,97273.16
2023-02-25T19:08:50.591Z,97283.06
2023-02-25T19:13:53.600Z,97280.69
2023-02-25T19:18:56.210Z,97284.75
2023-02-25T19:23:58.264Z,97298.25
2023-02-25T19:29:00.732Z,97293.06
2023-02-25T19:34:03.205Z,97293.38
2023-02-25T19:39:06.301Z,97301.16
2023-02-25T19:44:09.410Z,97321.22
2023-02-25T19:49:11.470Z,97316.91
2023-02-25T19:54:13.538Z,97335.66
2023-02-25T19:59:16.231Z,97338.38
2023-02-25T20:04:18.490Z,97342.84
2023-02-25T20:09:20.805Z,97353.72
2023-02-25T20:14:28.075Z,97357.81
2023-02-25T20:19:32.918Z,97360.38
2023-02-25T20:24:35.359Z,97371.09
2023-02-25T20:29:37.429Z,97375.84
2023-02-25T20:34:39.716Z,97376.81
2023-02-25T20:39:55.188Z,97382.50
2023-02-25T20:44:59.055Z,97393.06
2023-02-25T20:50:02.211Z,97394.75
2023-02-25T20:55:06.831Z,97407.22
2023-02-25T21:00:13.347Z,97414.03
2023-02-25T21:05:16.640Z,97405.34
2023-02-25T21:10:19.036Z,97413.06
2023-02-25T21:15:21.035Z,97412.97
2023-02-25T21:20:23.159Z,97413.91
2023-02-25T21:25:25.710Z,97406.06
2023-02-25T21:30:28.202Z,97420.13
2023-02-25T21:35:30.340Z,97423.78
2023-02-25T21:40:33.672Z,97431.13
2023-02-25T21:45:35.786Z,97431.94
2023-02-25T21:50:37.787Z,97426.00
2023-02-25T21:55:39.956Z,97433.16
2023-02-25T22:00:42.792Z,97448.22
2023-02-25T22:05:46.967Z,97442.13
2023-02-25T22:10:49.114Z,97446.09
2023-02-25T22:15:51.514Z,97450.00
2023-02-25T22:20:54.481Z,97447.78
2023-02-25T22:26:01.205Z,97447.84
2023-02-25T22:31:05.036Z,97450.00
2023-02-25T22:36:08.226Z,97446.91
2023-02-25T22:41:15.772Z,97456.56
2023-02-25T22:46:24.042Z,97462.84
2023-02-25T22:51:35.451Z,97470.56
2023-02-25T22:56:37.810Z,97465.03
2023-02-25T23:01:41.232Z,97472.59
2023-02-25T23:06:45.303Z,97474.78
2023-02-25T23:11:47.636Z,97473.41
2023-02-25T23:16:49.619Z,97483.97
2023-02-25T23:21:51.670Z,97494.09
2023-02-25T23:26:54.363Z,97489.88
2023-02-25T23:31:56.578Z,97487.13
2023-02-25T23:36:58.743Z,97485.00
2023-02-25T23:42:00.801Z,97483.81
2023-02-25T23:47:03.008Z,97495.72
2023-02-25T23:52:05.076Z,97504.50
2023-02-25T23:57:07.231Z,97499.00
